createdAt,value
2019-02-11T00:00:42.626Z,18.80
2019-02-11T00:05:46.061Z,15.03
2019-02-11T00:10:50.499Z,15.65
2019-02-11T00:15:54.166Z,15.60
2019-02-11T00:20:58.182Z,16.20
2019-02-11T00:26:01.504Z,14.65
2019-02-11T00:31:06.644Z,15.72
2019-02-11T00:36:10.188Z,15.63
2019-02-11T00:41:15.323Z,14.70
2019-02-11T00:46:19.667Z,15.50
2019-02-11T00:51:22.975Z,15.65
2019-02-11T00:56:26.407Z,16.45
2019-02-11T01:01:29.715Z,14.23
2019-02-11T01:06:33.773Z,15.25
2019-02-11T01:11:37.220Z,15.05
2019-02-11T01:16:40.528Z,14.58
2019-02-11T01:21:44.551Z,13.38
2019-02-11T01:26:47.927Z,13.78
2019-02-11T01:31:51.371Z,15.85
2019-02-11T01:36:54.888Z,13.75
2019-02-11T01:41:58.404Z,14.87
2019-02-11T01:47:02.923Z,13.65
2019-02-11T01:52:06.710Z,12.20
2019-02-11T01:57:10.312Z,13.93
2019-02-11T02:02:14.541Z,13.98
2019-02-11T02:07:19.359Z,15.23
2019-02-11T02:12:22.783Z,13.75
2019-02-11T02:17:26.209Z,14.53
2019-02-11T02:22:29.711Z,12.65
2019-02-11T02:27:33.422Z,14.10
2019-02-11T02:32:36.840Z,13.22
2019-02-11T02:37:40.152Z,13.08
2019-02-11T02:42:43.592Z,12.37
2019-02-11T02:47:46.890Z,11.90
2019-02-11T02:52:50.275Z,13.28
2019-02-11T02:57:53.705Z,12.53
2019-02-11T03:02:57.174Z,11.53
2019-02-11T03:08:00.872Z,12.20
2019-02-11T03:13:05.063Z,12.78
2019-02-11T03:18:08.372Z,12.90
2019-02-11T03:23:11.800Z,13.68
2019-02-11T03:28:15.645Z,12.73
2019-02-11T03:33:19.142Z,12.73
2019-02-11T03:38:22.657Z,12.15
2019-02-11T03:43:27.214Z,11.28
2019-02-11T03:48:30.523Z,14.25
2019-02-11T03:53:35.059Z,13.72
2019-02-11T03:58:41.706Z,16.42
2019-02-11T04:03:46.207Z,12.40
2019-02-11T04:08:49.591Z,11.43
2019-02-11T04:13:54.372Z,14.80
2019-02-11T04:18:59.499Z,12.80
2019-02-11T04:24:02.833Z,12.10
2019-02-11T04:29:06.268Z,11.65
2019-02-11T04:34:11.003Z,12.45
2019-02-11T04:39:14.511Z,10.58
2019-02-11T04:44:18.964Z,12.98
2019-02-11T04:49:22.430Z,11.97
2019-02-11T04:54:26.900Z,11.10
2019-02-11T04:59:30.185Z,12.88
2019-02-11T05:04:34.316Z,10.70
2019-02-11T05:09:37.621Z,13.45
2019-02-11T05:14:43.818Z,13.60
2019-02-11T05:19:46.083Z,12.00
2019-02-11T05:24:49.519Z,11.30
2019-02-11T05:29:52.888Z,11.53
2019-02-11T05:34:56.463Z,11.97
2019-02-11T05:40:01.893Z,12.58
2019-02-11T05:45:07.133Z,11.80
2019-02-11T05:50:11.850Z,12.40
2019-02-11T05:55:17.210Z,11.63
2019-02-11T06:00:21.282Z,12.82
2019-02-11T06:05:24.611Z,12.95
2019-02-11T06:10:27.973Z,16.55
2019-02-11T06:15:31.317Z,16.67
2019-02-11T06:20:36.447Z,22.37
2019-02-11T06:25:39.817Z,17.73
2019-02-11T06:30:43.128Z,23.20
2019-02-11T06:35:46.439Z,16.42
2019-02-11T06:40:51.371Z,17.15
2019-02-11T06:45:55.059Z,18.17
2019-02-11T06:50:58.789Z,18.23
2019-02-11T06:56:02.323Z,22.77
2019-02-11T07:01:05.709Z,15.48
2019-02-11T07:06:09.016Z,16.15
2019-02-11T07:11:12.477Z,21.02
2019-02-11T07:16:15.855Z,20.10
2019-02-11T07:21:19.535Z,17.67
2019-02-11T07:26:22.842Z,20.40
2019-02-11T07:31:26.151Z,15.18
2019-02-11T07:36:29.455Z,17.45
2019-02-11T07:41:35.374Z,13.85
2019-02-11T07:46:40.124Z,16.25
2019-02-11T07:51:45.179Z,15.18
2019-02-11T07:56:48.489Z,16.93
2019-02-11T08:01:51.868Z,17.30
2019-02-11T08:06:55.176Z,14.73
2019-02-11T08:12:00.331Z,14.13
2019-02-11T08:17:05.250Z,13.88
2019-02-11T08:22:08.571Z,15.85
2019-02-11T08:27:12.197Z,12.88
2019-02-11T08:32:15.499Z,13.90
2019-02-11T08:37:18.803Z,13.22
2019-02-11T08:42:22.195Z,11.95
2019-02-11T08:47:26.463Z,12.20
2019-02-11T08:52:29.843Z,11.88
2019-02-11T08:57:34.027Z,10.75
2019-02-11T09:02:37.333Z,11.70
2019-02-11T09:07:41.575Z,11.33
2019-02-11T09:12:44.882Z,10.70
2019-02-11T09:17:48.184Z,12.85
2019-02-11T09:22:51.482Z,11.10
2019-02-11T09:27:54.795Z,9.68
2019-02-11T09:32:58.099Z,11.35
2019-02-11T09:38:02.608Z,9.78
2019-02-11T09:43:07.116Z,11.43
2019-02-11T09:48:10.496Z,9.18
2019-02-11T09:53:13.807Z,9.30
2019-02-11T09:58:17.189Z,8.53
2019-02-11T10:03:20.512Z,10.15
2019-02-11T10:08:24.291Z,8.40
2019-02-11T10:13:29.143Z,9.48
2019-02-11T10:18:32.495Z,9.03
2019-02-11T10:23:35.799Z,8.68
2019-02-11T10:28:40.075Z,10.18
2019-02-11T10:33:43.392Z,9.65
2019-02-11T10:38:47.021Z,9.28
2019-02-11T10:43:50.869Z,8.33
2019-02-11T10:48:54.169Z,7.92
2019-02-11T10:53:57.472Z,9.15
2019-02-11T10:59:01.711Z,8.75
2019-02-11T11:04:05.015Z,8.00
2019-02-11T11:09:11.180Z,7.67
2019-02-11T11:14:14.479Z,7.33
2019-02-11T11:19:17.793Z,8.13
2019-02-11T11:24:21.838Z,8.75
2019-02-11T11:29:26.450Z,8.25
2019-02-11T11:34:30.050Z,7.40
2019-02-11T11:39:33.439Z,7.67
2019-02-11T11:44:36.824Z,10.08
2019-02-11T11:49:41.828Z,7.80
2019-02-11T11:54:45.204Z,5.92
2019-02-11T11:59:49.279Z,8.15
2019-02-11T12:04:52.719Z,7.78
2019-02-11T12:09:56.102Z,6.35
2019-02-11T12:14:59.495Z,6.22
2019-02-11T12:20:02.868Z,6.75
2019-02-11T12:25:09.494Z,7.25
2019-02-11T12:30:18.271Z,6.00
2019-02-11T12:35:21.672Z,5.78
2019-02-11T12:40:25.619Z,6.92
2019-02-11T12:45:28.995Z,6.37
2019-02-11T12:50:33.177Z,6.70
2019-02-11T12:55:36.556Z,7.90
2019-02-11T13:00:39.964Z,5.83
2019-02-11T13:05:46.093Z,6.70
2019-02-11T13:10:48.326Z,6.47
2019-02-11T13:16:00.822Z,5.55
2019-02-11T13:20:58.474Z,7.33
2019-02-11T13:26:02.325Z,7.95
2019-02-11T13:31:05.703Z,6.78
2019-02-11T13:36:09.164Z,6.35
2019-02-11T13:41:12.540Z,4.80
2019-02-11T13:46:15.929Z,5.90
2019-02-11T13:51:20.065Z,7.37
2019-02-11T13:56:23.460Z,5.50
2019-02-11T14:01:26.822Z,5.90
2019-02-11T14:06:31.473Z,7.17
2019-02-11T14:11:36.482Z,7.75
2019-02-11T14:16:39.861Z,8.85
2019-02-11T14:21:43.239Z,6.37
2019-02-11T14:26:47.413Z,6.03
2019-02-11T14:31:50.813Z,6.58
2019-02-11T14:36:54.182Z,6.55
2019-02-11T14:41:57.564Z,6.47
2019-02-11T14:47:00.953Z,6.90
2019-02-11T14:52:06.254Z,5.12
2019-02-11T14:57:11.359Z,5.80
2019-02-11T15:02:14.591Z,6.58
2019-02-11T15:07:17.907Z,5.97
2019-02-11T15:12:21.658Z,5.35
2019-02-11T15:17:24.979Z,4.92
2019-02-11T15:22:28.471Z,5.30
2019-02-11T15:27:31.773Z,4.85
2019-02-11T15:32:35.189Z,6.15
2019-02-11T15:37:38.465Z,7.92
2019-02-11T15:42:41.769Z,6.40
2019-02-11T15:47:45.640Z,4.90
2019-02-11T15:52:50.584Z,5.47
2019-02-11T15:57:55.514Z,5.30
2019-02-11T16:02:59.653Z,6.08
2019-02-11T16:08:02.963Z,7.72
2019-02-11T16:13:07.850Z,4.85
2019-02-11T16:18:11.223Z,5.97
2019-02-11T16:23:17.623Z,7.40
2019-02-11T16:28:20.995Z,5.83
2019-02-11T16:33:24.307Z,13.05
2019-02-11T16:38:27.609Z,6.42
2019-02-11T16:43:32.482Z,6.72
2019-02-11T16:48:35.787Z,6.90
2019-02-11T16:53:40.543Z,8.23
2019-02-11T16:58:43.847Z,11.60
2019-02-11T17:03:47.895Z,6.72
2019-02-11T17:08:51.175Z,10.38
2019-02-11T17:13:54.487Z,7.72
2019-02-11T17:18:57.963Z,10.88
2019-02-11T17:24:01.336Z,9.50
2019-02-11T17:29:04.627Z,11.28
2019-02-11T17:34:07.944Z,19.37
2019-02-11T17:39:11.314Z,12.10
2019-02-11T17:44:14.736Z,12.70
2019-02-11T17:49:18.961Z,14.05
2019-02-11T17:54:23.634Z,9.28
2019-02-11T17:59:28.097Z,15.85
2019-02-11T18:04:32.335Z,14.10
2019-02-11T18:09:35.644Z,9.05
2019-02-11T18:14:40.158Z,15.48
2019-02-11T18:19:45.206Z,10.58
2019-02-11T18:24:48.763Z,10.50
2019-02-11T18:29:53.555Z,9.45
2019-02-11T18:34:56.863Z,12.90
2019-02-11T18:40:00.306Z,10.35
2019-02-11T18:45:05.334Z,8.40
2019-02-11T18:50:11.956Z,10.38
2019-02-11T18:55:21.551Z,15.18
2019-02-11T19:00:24.855Z,9.25
2019-02-11T19:05:28.273Z,9.28
2019-02-11T19:10:31.699Z,12.15
2019-02-11T19:15:34.995Z,14.03
2019-02-11T19:20:38.312Z,14.38
2019-02-11T19:25:42.184Z,9.53
2019-02-11T19:30:45.632Z,9.75
2019-02-11T19:35:49.048Z,12.20
2019-02-11T19:40:54.282Z,14.25
2019-02-11T19:45:59.360Z,12.82
2019-02-11T19:51:02.879Z,11.33
2019-02-11T19:56:07.741Z,10.65
2019-02-11T20:01:11.049Z,8.65
2019-02-11T20:06:14.469Z,9.58
2019-02-11T20:11:18.724Z,10.55
2019-02-11T20:16:22.140Z,9.00
2019-02-11T20:21:25.436Z,7.30
2019-02-11T20:26:28.743Z,8.83
2019-02-11T20:31:34.119Z,7.37
2019-02-11T20:36:38.203Z,10.05
2019-02-11T20:41:41.926Z,8.60
2019-02-11T20:46:45.504Z,8.55
2019-02-11T20:51:50.595Z,11.53
2019-02-11T20:56:54.018Z,11.43
2019-02-11T21:01:57.663Z,9.38
2019-02-11T21:07:02.090Z,12.05
2019-02-11T21:12:06.099Z,10.15
2019-02-11T21:17:09.544Z,11.85
2019-02-11T21:22:12.976Z,9.03
2019-02-11T21:27:16.707Z,6.35
2019-02-11T21:32:20.159Z,8.93
2019-02-11T21:37:23.459Z,11.45
2019-02-11T21:42:26.787Z,13.03
2019-02-11T21:47:31.131Z,10.03
2019-02-11T21:52:34.455Z,22.05
2019-02-11T21:57:38.839Z,8.45
2019-02-11T22:02:42.438Z,10.38
2019-02-11T22:07:45.724Z,10.35
2019-02-11T22:12:49.726Z,10.40
2019-02-11T22:17:53.024Z,8.15
2019-02-11T22:22:56.964Z,8.45
2019-02-11T22:28:00.790Z,7.60
2019-02-11T22:33:04.410Z,6.70
2019-02-11T22:38:07.918Z,9.75
2019-02-11T22:43:12.295Z,6.22
2019-02-11T22:48:16.107Z,5.03
2019-02-11T22:53:19.502Z,8.43
2019-02-11T22:58:22.916Z,6.12
2019-02-11T23:03:26.785Z,7.33
2019-02-11T23:08:31.796Z,6.83
2019-02-11T23:13:35.093Z,8.03
2019-02-11T23:18:38.391Z,5.15
2019-02-11T23:23:41.868Z,4.97
2019-02-11T23:28:45.276Z,5.15
2019-02-11T23:33:49.266Z,5.22
2019-02-11T23:38:52.782Z,4.92
2019-02-11T23:43:56.159Z,5.12
2019-02-11T23:48:59.466Z,3.77
2019-02-11T23:54:03.020Z,3.75
2019-02-11T23:59:06.435Z,5.12
